createdAt,value
2023-05-18T00:00:36.226Z,2.73
2023-05-18T00:03:04.830Z,3.20
2023-05-18T00:05:34.923Z,3.50
2023-05-18T00:08:03.753Z,2.93
2023-05-18T00:10:32.343Z,2.60
2023-05-18T00:13:00.864Z,3.90
2023-05-18T00:15:29.628Z,3.10
2023-05-18T00:17:59.363Z,3.23
2023-05-18T00:20:27.778Z,3.13
2023-05-18T00:22:56.107Z,3.30
2023-05-18T00:25:24.907Z,3.90
2023-05-18T00:27:53.391Z,3.67
2023-05-18T00:30:22.296Z,3.13
2023-05-18T00:36:19.762Z,3.53
2023-05-18T00:38:48.266Z,3.37
2023-05-18T00:41:16.730Z,3.10
2023-05-18T00:43:45.057Z,3.13
2023-05-18T00:46:13.645Z,3.40
2023-05-18T00:48:42.142Z,3.33
2023-05-18T00:51:10.876Z,2.90
2023-05-18T00:53:40.624Z,3.60
2023-05-18T00:56:11.953Z,3.83
2023-05-18T00:58:44.916Z,3.20
2023-05-18T01:01:13.516Z,3.00
2023-05-18T01:03:44.159Z,3.53
2023-05-18T01:06:13.826Z,3.53
2023-05-18T01:08:44.846Z,3.23
2023-05-18T01:11:57.147Z,3.13
2023-05-18T01:14:53.164Z,3.00
2023-05-18T01:17:46.247Z,3.60
2023-05-18T01:20:58.527Z,3.10
2023-05-18T01:24:11.797Z,3.20
2023-05-18T01:26:46.171Z,3.80
2023-05-18T01:29:17.082Z,3.47
2023-05-18T01:31:59.937Z,2.90
2023-05-18T01:34:28.630Z,3.50
2023-05-18T01:36:57.609Z,3.40
2023-05-18T01:39:26.331Z,3.37
2023-05-18T01:42:00.624Z,3.50
2023-05-18T01:44:35.195Z,3.53
2023-05-18T01:47:26.270Z,3.10
2023-05-18T01:50:03.507Z,2.67
2023-05-18T01:52:39.010Z,3.07
2023-05-18T01:55:09.447Z,3.07
2023-05-18T01:57:40.419Z,3.57
2023-05-18T02:00:11.026Z,3.43
2023-05-18T02:02:39.844Z,3.20
2023-05-18T02:05:13.078Z,3.63
2023-05-18T02:07:44.812Z,3.57
2023-05-18T02:10:13.706Z,3.70
2023-05-18T02:12:42.394Z,4.53
2023-05-18T02:15:11.446Z,3.47
2023-05-18T02:17:40.050Z,3.60
2023-05-18T02:20:09.184Z,3.90
2023-05-18T02:22:38.195Z,3.83
2023-05-18T02:25:07.990Z,3.57
2023-05-18T02:27:37.522Z,3.60
2023-05-18T02:30:09.140Z,3.80
2023-05-18T02:32:40.417Z,3.70
2023-05-18T02:35:09.984Z,3.70
2023-05-18T02:37:40.613Z,3.67
2023-05-18T02:40:12.177Z,3.33
2023-05-18T02:42:40.732Z,3.83
2023-05-18T02:45:09.987Z,3.97
2023-05-18T02:47:38.618Z,3.50
2023-05-18T02:50:07.783Z,4.30
2023-05-18T02:52:36.297Z,4.43
2023-05-18T02:55:04.956Z,4.10
2023-05-18T02:57:33.669Z,4.03
2023-05-18T03:00:02.113Z,3.97
2023-05-18T03:02:30.894Z,4.40
2023-05-18T03:04:59.307Z,4.10
2023-05-18T03:07:28.399Z,4.30
2023-05-18T03:09:56.777Z,5.50
2023-05-18T03:12:25.219Z,5.03
2023-05-18T03:14:53.590Z,5.13
2023-05-18T03:17:22.056Z,5.27
2023-05-18T03:19:50.532Z,4.20
2023-05-18T03:22:18.907Z,4.53
2023-05-18T03:24:47.308Z,5.67
2023-05-18T03:27:17.244Z,5.03
2023-05-18T03:29:46.438Z,4.23
2023-05-18T03:32:14.810Z,5.20
2023-05-18T03:34:45.545Z,5.30
2023-05-18T03:37:14.004Z,4.50
2023-05-18T03:39:42.451Z,4.00
2023-05-18T03:42:10.932Z,4.70
2023-05-18T03:44:39.365Z,3.40
2023-05-18T03:47:08.588Z,4.77
2023-05-18T03:49:37.045Z,4.40
2023-05-18T03:52:06.169Z,4.27
2023-05-18T03:54:34.747Z,5.47
2023-05-18T03:57:03.146Z,5.30
2023-05-18T03:59:31.679Z,5.50
2023-05-18T04:02:03.158Z,4.43
2023-05-18T04:04:31.911Z,4.50
2023-05-18T04:07:03.152Z,5.77
2023-05-18T04:09:31.507Z,5.23
2023-05-18T04:11:59.910Z,5.10
2023-05-18T04:14:28.937Z,5.50
2023-05-18T04:16:59.064Z,5.30
2023-05-18T04:19:27.456Z,5.90
2023-05-18T04:21:55.860Z,5.47
2023-05-18T04:24:30.062Z,5.20
2023-05-18T04:27:00.243Z,5.30
2023-05-18T04:29:29.693Z,5.20
2023-05-18T04:32:01.814Z,5.37
2023-05-18T04:34:31.312Z,5.37
2023-05-18T04:36:59.851Z,5.50
2023-05-18T04:39:28.269Z,4.90
2023-05-18T04:41:58.940Z,5.53
2023-05-18T04:44:31.225Z,4.77
2023-05-18T04:47:00.194Z,5.40
2023-05-18T04:49:29.112Z,5.33
2023-05-18T04:51:58.895Z,4.87
2023-05-18T04:54:37.853Z,5.07
2023-05-18T04:57:06.200Z,5.70
2023-05-18T04:59:37.727Z,5.70
2023-05-18T05:02:06.746Z,6.17
2023-05-18T05:04:35.448Z,6.47
2023-05-18T05:07:03.919Z,5.23
2023-05-18T05:09:32.413Z,5.40
2023-05-18T05:12:00.839Z,4.63
2023-05-18T05:14:29.343Z,6.00
2023-05-18T05:16:57.758Z,6.00
2023-05-18T05:19:28.941Z,5.77
2023-05-18T05:21:57.313Z,4.73
2023-05-18T05:24:25.906Z,6.50
2023-05-18T05:26:54.342Z,5.13
2023-05-18T05:29:22.778Z,6.63
2023-05-18T05:31:51.393Z,6.50
2023-05-18T05:34:20.145Z,5.57
2023-05-18T05:36:48.540Z,6.07
2023-05-18T05:39:16.896Z,5.10
2023-05-18T05:41:45.367Z,6.00
2023-05-18T05:44:13.797Z,6.73
2023-05-18T05:46:42.191Z,5.97
2023-05-18T05:49:10.677Z,5.00
2023-05-18T05:51:42.066Z,5.47
2023-05-18T05:54:10.901Z,5.63
2023-05-18T05:56:39.308Z,5.10
2023-05-18T05:59:07.685Z,5.37
2023-05-18T06:01:36.296Z,5.13
2023-05-18T06:04:07.216Z,4.90
2023-05-18T06:06:35.602Z,5.50
2023-05-18T06:09:05.356Z,5.27
2023-05-18T06:11:33.817Z,4.87
2023-05-18T06:14:02.216Z,5.20
2023-05-18T06:16:30.640Z,5.30
2023-05-18T06:18:59.213Z,4.97
2023-05-18T06:21:27.635Z,4.43
2023-05-18T06:23:56.127Z,4.73
2023-05-18T06:26:24.600Z,6.13
2023-05-18T06:28:52.969Z,6.43
2023-05-18T06:31:21.874Z,5.30
2023-05-18T06:33:50.551Z,5.03
2023-05-18T06:36:19.231Z,5.17
2023-05-18T06:38:47.722Z,4.43
2023-05-18T06:41:16.179Z,4.90
2023-05-18T06:43:44.618Z,4.37
2023-05-18T06:46:21.933Z,5.30
2023-05-18T06:48:50.390Z,5.10
2023-05-18T06:51:18.793Z,5.50
2023-05-18T06:53:47.369Z,4.97
2023-05-18T06:56:15.819Z,4.90
2023-05-18T06:58:44.489Z,4.17
2023-05-18T07:01:13.049Z,4.80
2023-05-18T07:03:41.732Z,4.67
2023-05-18T07:06:10.214Z,4.90
2023-05-18T07:08:38.602Z,5.70
2023-05-18T07:11:07.172Z,4.40
2023-05-18T07:13:35.524Z,4.30
2023-05-18T07:16:03.950Z,4.47
2023-05-18T07:18:32.353Z,5.00
2023-05-18T07:21:00.786Z,5.13
2023-05-18T07:23:29.580Z,4.97
2023-05-18T07:25:58.714Z,4.87
2023-05-18T07:28:27.165Z,5.50
2023-05-18T07:30:55.527Z,5.00
2023-05-18T07:33:24.080Z,5.33
2023-05-18T07:35:52.516Z,5.70
2023-05-18T07:38:20.858Z,5.17
2023-05-18T07:40:49.213Z,5.60
2023-05-18T07:43:17.602Z,5.67
2023-05-18T07:45:46.144Z,5.37
2023-05-18T07:48:14.562Z,5.73
2023-05-18T07:50:42.979Z,5.70
2023-05-18T07:53:11.454Z,5.17
2023-05-18T07:55:39.926Z,5.50
2023-05-18T07:58:08.398Z,6.53
2023-05-18T08:00:36.988Z,5.57
2023-05-18T08:03:07.622Z,6.20
2023-05-18T08:05:36.232Z,6.03
2023-05-18T08:08:06.849Z,5.93
2023-05-18T08:10:35.850Z,5.63
2023-05-18T08:13:04.289Z,5.50
2023-05-18T08:15:32.862Z,5.30
2023-05-18T08:18:01.514Z,5.53
2023-05-18T08:20:32.908Z,5.63
2023-05-18T08:23:01.467Z,5.57
2023-05-18T08:25:30.157Z,5.90
2023-05-18T08:27:58.786Z,5.83
2023-05-18T08:30:27.636Z,5.80
2023-05-18T08:32:56.067Z,5.70
2023-05-18T08:35:24.893Z,5.23
2023-05-18T08:37:53.312Z,5.30
2023-05-18T08:40:21.930Z,5.33
2023-05-18T08:43:07.562Z,5.50
2023-05-18T08:46:01.328Z,5.67
2023-05-18T08:48:32.514Z,6.00
2023-05-18T08:51:05.012Z,6.13
2023-05-18T08:53:34.773Z,5.43
2023-05-18T08:56:03.640Z,5.60
2023-05-18T08:58:48.282Z,5.63
2023-05-18T09:01:17.232Z,5.33
2023-05-18T09:03:50.036Z,6.23
2023-05-18T09:06:19.242Z,5.97
2023-05-18T09:08:48.910Z,5.83
2023-05-18T09:11:18.394Z,5.53
2023-05-18T09:13:47.622Z,6.10
2023-05-18T09:16:16.037Z,6.70
2023-05-18T09:18:44.465Z,5.93
2023-05-18T09:21:13.416Z,6.23
2023-05-18T09:23:42.317Z,6.10
2023-05-18T09:26:10.984Z,5.27
2023-05-18T09:28:41.418Z,6.20
2023-05-18T09:31:13.406Z,6.40
2023-05-18T09:33:44.277Z,6.07
2023-05-18T09:36:13.181Z,5.63
2023-05-18T09:38:46.402Z,6.23
2023-05-18T09:41:19.391Z,6.40
2023-05-18T09:43:50.010Z,5.70
2023-05-18T09:46:19.174Z,6.20
2023-05-18T09:48:52.268Z,7.20
2023-05-18T09:51:22.624Z,6.60
2023-05-18T09:53:54.407Z,6.63
2023-05-18T09:56:28.008Z,6.37
2023-05-18T09:58:56.594Z,6.50
2023-05-18T10:01:25.164Z,6.40
2023-05-18T10:03:54.103Z,7.87
2023-05-18T10:06:28.502Z,6.40
2023-05-18T10:08:59.929Z,6.20
2023-05-18T10:11:33.608Z,6.20
2023-05-18T10:14:02.007Z,6.77
2023-05-18T10:16:30.616Z,6.00
2023-05-18T10:19:01.156Z,6.77
2023-05-18T10:21:31.886Z,6.73
2023-05-18T10:24:03.710Z,6.60
2023-05-18T10:26:36.314Z,6.67
2023-05-18T10:29:06.576Z,6.73
2023-05-18T10:31:38.503Z,7.80
2023-05-18T10:34:09.794Z,7.20
2023-05-18T10:36:38.883Z,7.50
2023-05-18T10:39:08.521Z,6.63
2023-05-18T10:41:38.828Z,7.73
2023-05-18T10:44:08.430Z,7.63
2023-05-18T10:46:37.834Z,7.40
2023-05-18T10:49:13.761Z,7.30
2023-05-18T10:51:48.188Z,7.10
2023-05-18T10:54:16.630Z,7.13
2023-05-18T10:56:48.660Z,7.30
2023-05-18T10:59:19.161Z,7.53
2023-05-18T11:01:50.467Z,6.63
2023-05-18T11:04:25.908Z,6.87
2023-05-18T11:07:03.778Z,6.93
2023-05-18T11:09:33.255Z,7.40
2023-05-18T11:12:01.857Z,7.33
2023-05-18T11:14:33.830Z,6.40
2023-05-18T11:17:22.150Z,7.33
2023-05-18T11:20:14.636Z,7.27
2023-05-18T11:22:49.297Z,6.50
2023-05-18T11:25:26.549Z,6.27
2023-05-18T11:28:08.492Z,4.90
2023-05-18T11:30:42.896Z,3.93
2023-05-18T11:33:16.799Z,4.37
2023-05-18T11:36:15.349Z,3.90
2023-05-18T11:38:50.793Z,4.23
2023-05-18T11:41:30.436Z,3.40
2023-05-18T11:44:17.223Z,3.60
2023-05-18T11:47:04.898Z,3.97
2023-05-18T11:49:48.185Z,3.80
2023-05-18T11:52:24.140Z,3.53
2023-05-18T11:54:55.558Z,3.37
2023-05-18T11:57:36.192Z,3.37
2023-05-18T12:00:14.130Z,3.40
2023-05-18T12:02:47.812Z,4.00
2023-05-18T12:05:16.794Z,3.97
2023-05-18T12:07:46.241Z,3.40
2023-05-18T12:10:16.841Z,4.37
2023-05-18T12:12:48.713Z,4.07
2023-05-18T12:15:17.609Z,4.50
2023-05-18T12:17:50.786Z,4.17
2023-05-18T12:20:22.252Z,3.97
2023-05-18T12:22:53.924Z,3.83
2023-05-18T12:25:24.635Z,3.90
2023-05-18T12:27:54.671Z,3.67
2023-05-18T12:30:36.149Z,4.07
2023-05-18T12:33:05.408Z,3.63
2023-05-18T12:35:34.373Z,4.20
2023-05-18T12:38:03.341Z,3.83
2023-05-18T12:40:47.271Z,4.17
2023-05-18T12:43:15.803Z,3.83
2023-05-18T12:45:46.134Z,3.77
2023-05-18T12:48:15.670Z,4.20
2023-05-18T12:50:51.592Z,3.73
2023-05-18T12:53:20.399Z,3.90
2023-05-18T12:56:10.441Z,3.63
2023-05-18T12:58:41.119Z,3.80
2023-05-18T13:01:11.436Z,3.50
2023-05-18T13:03:43.222Z,3.50
2023-05-18T13:06:11.880Z,3.70
2023-05-18T13:08:40.325Z,3.97
2023-05-18T13:11:14.657Z,3.80
2023-05-18T13:14:06.477Z,4.60
2023-05-18T13:16:39.159Z,4.40
2023-05-18T13:19:10.627Z,4.60
2023-05-18T13:21:39.916Z,4.07
2023-05-18T13:24:08.576Z,4.00
2023-05-18T13:26:36.932Z,5.70
2023-05-18T13:29:05.819Z,5.23
2023-05-18T13:31:34.194Z,4.93
2023-05-18T13:34:02.575Z,4.50
2023-05-18T13:36:32.472Z,4.40
2023-05-18T13:39:01.638Z,3.73
2023-05-18T13:41:30.019Z,4.60
2023-05-18T13:43:58.365Z,4.40
2023-05-18T13:46:26.950Z,4.70
2023-05-18T13:48:55.401Z,4.17
2023-05-18T13:51:23.835Z,4.43
2023-05-18T13:53:52.204Z,4.23
2023-05-18T13:56:20.649Z,3.87
2023-05-18T13:58:49.073Z,4.70
2023-05-18T14:01:18.626Z,3.93
2023-05-18T14:03:47.277Z,4.30
2023-05-18T14:06:15.638Z,4.67
2023-05-18T14:08:43.981Z,6.97
2023-05-18T14:11:12.370Z,4.80
2023-05-18T14:13:40.801Z,7.30
2023-05-18T14:16:09.479Z,7.23
2023-05-18T14:18:38.051Z,6.13
2023-05-18T14:21:06.590Z,6.73
2023-05-18T14:23:34.926Z,4.30
2023-05-18T14:26:03.328Z,4.70
2023-05-18T14:28:31.792Z,4.87
2023-05-18T14:31:00.269Z,4.53
2023-05-18T14:33:28.693Z,4.80
2023-05-18T14:35:58.574Z,6.30
2023-05-18T14:38:27.802Z,4.53
2023-05-18T14:40:56.203Z,4.07
2023-05-18T14:43:24.574Z,5.30
2023-05-18T14:46:04.344Z,4.60
2023-05-18T14:48:37.208Z,5.60
2023-05-18T14:51:05.679Z,5.40
2023-05-18T14:53:34.074Z,4.70
2023-05-18T14:56:06.732Z,5.13
2023-05-18T14:58:35.436Z,5.00
2023-05-18T15:01:04.304Z,4.67
2023-05-18T15:03:32.730Z,4.43
2023-05-18T15:06:01.187Z,4.70
2023-05-18T15:08:29.538Z,5.17
2023-05-18T15:10:58.038Z,4.87
2023-05-18T15:13:26.581Z,5.03
2023-05-18T15:15:55.098Z,4.73
2023-05-18T15:18:23.429Z,4.60
2023-05-18T15:20:51.788Z,4.30
2023-05-18T15:23:20.286Z,4.33
2023-05-18T15:25:48.676Z,4.73
2023-05-18T15:28:17.035Z,4.70
2023-05-18T15:30:45.379Z,5.33
2023-05-18T15:33:14.125Z,5.30
2023-05-18T15:35:42.538Z,4.73
2023-05-18T15:38:10.927Z,4.33
2023-05-18T15:40:39.298Z,5.03
2023-05-18T15:43:07.653Z,4.97
2023-05-18T15:45:36.299Z,4.37
2023-05-18T15:48:04.798Z,4.80
2023-05-18T15:50:33.227Z,4.57
2023-05-18T15:53:01.620Z,5.00
2023-05-18T15:55:29.992Z,4.90
2023-05-18T15:57:58.390Z,4.90
2023-05-18T16:00:27.153Z,5.40
2023-05-18T16:02:55.550Z,4.43
2023-05-18T16:05:23.971Z,4.47
2023-05-18T16:07:52.344Z,5.10
2023-05-18T16:10:24.239Z,4.40
2023-05-18T16:12:52.731Z,5.67
2023-05-18T16:15:25.020Z,4.50
2023-05-18T16:17:53.398Z,4.90
2023-05-18T16:20:22.194Z,4.87
2023-05-18T16:22:52.114Z,4.70
2023-05-18T16:25:20.620Z,4.07
2023-05-18T16:27:48.994Z,5.67
2023-05-18T16:30:17.382Z,5.37
2023-05-18T16:32:46.000Z,5.33
2023-05-18T16:35:14.463Z,5.13
2023-05-18T16:37:42.832Z,5.40
2023-05-18T16:40:11.508Z,5.30
2023-05-18T16:42:39.872Z,5.20
2023-05-18T16:45:08.545Z,5.60
2023-05-18T16:47:36.932Z,5.90
2023-05-18T16:50:05.527Z,7.03
2023-05-18T16:52:33.851Z,6.90
2023-05-18T16:55:02.188Z,6.50
2023-05-18T16:57:30.973Z,6.63
2023-05-18T17:00:00.789Z,6.20
2023-05-18T17:02:29.503Z,6.83
2023-05-18T17:04:59.813Z,7.10
2023-05-18T17:07:28.269Z,7.23
2023-05-18T17:09:57.098Z,6.97
2023-05-18T17:12:25.450Z,6.70
2023-05-18T17:14:53.788Z,6.40
2023-05-18T17:17:22.238Z,8.00
2023-05-18T17:19:50.872Z,8.03
2023-05-18T17:22:19.215Z,7.10
2023-05-18T17:24:47.712Z,7.60
2023-05-18T17:27:16.523Z,7.80
2023-05-18T17:29:44.876Z,8.30
2023-05-18T17:32:13.270Z,8.20
2023-05-18T17:34:41.744Z,7.23
2023-05-18T17:37:10.159Z,8.40
2023-05-18T17:39:38.730Z,7.73
2023-05-18T17:42:07.669Z,8.67
2023-05-18T17:44:36.154Z,8.90
2023-05-18T17:47:04.881Z,7.90
2023-05-18T17:49:33.849Z,7.43
2023-05-18T17:52:02.290Z,7.70
2023-05-18T17:54:30.756Z,7.63
2023-05-18T17:56:59.173Z,7.57
2023-05-18T17:59:27.595Z,6.70
2023-05-18T18:01:56.053Z,7.57
2023-05-18T18:04:24.528Z,6.83
2023-05-18T18:06:55.333Z,7.50
2023-05-18T18:09:23.741Z,7.00
2023-05-18T18:11:52.093Z,7.53
2023-05-18T18:14:20.441Z,7.20
2023-05-18T18:16:49.111Z,7.63
2023-05-18T18:19:17.533Z,6.70
2023-05-18T18:21:45.900Z,6.70
2023-05-18T18:24:15.148Z,5.07
2023-05-18T18:26:43.530Z,8.73
2023-05-18T18:29:12.165Z,5.60
2023-05-18T18:31:40.684Z,7.87
2023-05-18T18:34:09.196Z,6.40
2023-05-18T18:36:40.793Z,6.13
2023-05-18T18:39:09.431Z,5.30
2023-05-18T18:41:37.939Z,9.17
2023-05-18T18:44:06.442Z,7.90
2023-05-18T18:46:34.946Z,7.90
2023-05-18T18:49:03.384Z,8.83
2023-05-18T18:51:32.038Z,9.93
2023-05-18T18:54:00.405Z,8.43
2023-05-18T18:56:29.036Z,9.33
2023-05-18T18:58:57.814Z,9.63
2023-05-18T19:01:26.405Z,8.90
2023-05-18T19:03:54.986Z,8.03
2023-05-18T19:06:23.959Z,6.50
2023-05-18T19:08:54.089Z,5.40
2023-05-18T19:11:24.133Z,4.53
2023-05-18T19:13:52.507Z,6.67
2023-05-18T19:16:22.311Z,4.87
2023-05-18T19:18:50.756Z,5.30
2023-05-18T19:21:19.081Z,4.80
2023-05-18T19:23:47.406Z,4.33
2023-05-18T19:26:15.810Z,4.70
2023-05-18T19:28:44.165Z,4.83
2023-05-18T19:31:12.632Z,4.27
2023-05-18T19:33:41.130Z,4.23
2023-05-18T19:36:11.146Z,3.93
2023-05-18T19:38:39.481Z,4.20
2023-05-18T19:41:07.934Z,4.43
2023-05-18T19:43:36.748Z,4.50
2023-05-18T19:46:06.234Z,4.90
2023-05-18T19:48:34.840Z,4.57
2023-05-18T19:51:04.900Z,3.90
2023-05-18T19:53:33.299Z,4.87
2023-05-18T19:56:02.076Z,4.00
2023-05-18T19:58:30.400Z,4.73
2023-05-18T20:00:58.731Z,3.97
2023-05-18T20:03:28.318Z,6.10
2023-05-18T20:05:57.416Z,7.50
2023-05-18T20:08:26.412Z,7.13
2023-05-18T20:10:55.176Z,8.33
2023-05-18T20:13:23.757Z,8.67
2023-05-18T20:15:52.260Z,7.57
2023-05-18T20:18:20.657Z,7.30
2023-05-18T20:20:50.640Z,7.83
2023-05-18T20:23:19.229Z,7.60
2023-05-18T20:25:48.953Z,7.70
2023-05-18T20:28:17.327Z,8.07
2023-05-18T20:30:45.665Z,5.10
2023-05-18T20:33:16.331Z,5.27
2023-05-18T20:35:46.030Z,4.80
2023-05-18T20:38:14.460Z,5.13
2023-05-18T20:40:42.839Z,4.30
2023-05-18T20:43:12.322Z,4.20
2023-05-18T20:45:42.169Z,5.80
2023-05-18T20:48:10.661Z,7.73
2023-05-18T20:50:40.007Z,7.70
2023-05-18T20:53:08.336Z,6.90
2023-05-18T20:55:36.691Z,6.87
2023-05-18T20:58:05.374Z,7.23
2023-05-18T21:00:34.233Z,7.33
2023-05-18T21:03:05.005Z,5.50
2023-05-18T21:05:34.199Z,6.53
2023-05-18T21:08:04.134Z,6.47
2023-05-18T21:10:33.053Z,6.80
2023-05-18T21:13:01.701Z,6.20
2023-05-18T21:15:30.523Z,6.10
2023-05-18T21:17:59.064Z,6.27
2023-05-18T21:20:27.747Z,7.30
2023-05-18T21:22:56.270Z,5.73
2023-05-18T21:25:24.817Z,5.23
2023-05-18T21:27:53.124Z,5.37
2023-05-18T21:30:21.545Z,5.50
2023-05-18T21:32:50.441Z,6.03
2023-05-18T21:35:19.001Z,4.60
2023-05-18T21:37:47.382Z,5.30
2023-05-18T21:40:15.715Z,5.67
2023-05-18T21:42:46.692Z,6.00
2023-05-18T21:45:15.327Z,5.60
2023-05-18T21:47:43.658Z,5.27
2023-05-18T21:50:12.388Z,5.50
2023-05-18T21:52:40.717Z,4.23
2023-05-18T21:55:09.679Z,3.90
2023-05-18T21:57:38.024Z,4.53
2023-05-18T22:00:07.378Z,4.10
2023-05-18T22:02:35.760Z,4.13
2023-05-18T22:05:04.162Z,4.17
2023-05-18T22:07:32.653Z,4.30
2023-05-18T22:10:01.332Z,4.00
2023-05-18T22:12:29.741Z,4.10
2023-05-18T22:14:58.166Z,6.20
2023-05-18T22:17:26.804Z,5.70
2023-05-18T22:20:38.085Z,7.13
2023-05-18T22:23:06.476Z,7.97
2023-05-18T22:25:34.872Z,6.80
2023-05-18T22:28:03.382Z,6.90
2023-05-18T22:30:34.460Z,7.03
2023-05-18T22:33:02.931Z,7.70
2023-05-18T22:35:31.732Z,7.20
2023-05-18T22:38:00.085Z,7.00
2023-05-18T22:40:28.417Z,6.70
2023-05-18T22:42:57.984Z,7.07
2023-05-18T22:45:26.484Z,4.70
2023-05-18T22:47:54.910Z,5.30
2023-05-18T22:50:23.534Z,5.23
2023-05-18T22:52:52.041Z,7.50
2023-05-18T22:55:20.489Z,6.70
2023-05-18T22:57:48.838Z,6.30
2023-05-18T23:00:19.419Z,6.60
2023-05-18T23:02:47.950Z,6.50
2023-05-18T23:05:16.747Z,6.90
2023-05-18T23:07:45.170Z,5.87
2023-05-18T23:10:14.068Z,6.10
2023-05-18T23:12:42.414Z,6.97
2023-05-18T23:15:11.572Z,6.53
2023-05-18T23:17:40.296Z,7.10
2023-05-18T23:20:09.404Z,6.97
2023-05-18T23:22:37.950Z,6.90
2023-05-18T23:25:09.312Z,6.77
2023-05-18T23:27:37.836Z,6.43
2023-05-18T23:30:06.948Z,7.03
2023-05-18T23:32:37.196Z,6.80
2023-05-18T23:35:07.176Z,6.73
2023-05-18T23:37:38.367Z,6.53
2023-05-18T23:40:09.047Z,7.00
2023-05-18T23:42:37.684Z,6.97
2023-05-18T23:45:07.375Z,7.20
2023-05-18T23:47:36.330Z,7.10
2023-05-18T23:50:04.964Z,7.13
2023-05-18T23:52:35.548Z,6.73
2023-05-18T23:55:06.004Z,6.90
2023-05-18T23:57:34.655Z,7.07
